Time;durP1;ratioP1;P1;durP2;ratioP2;P2;SDS_P1;SDS_P2;PMS_P1;PMS_P2;Temp;Humidity;BMP_temperature;BMP_pressure;BME280_temperature;BME280_humidity;BME280_pressure;Samples;Min_cycle;Max_cycle;Signal;HPM_P1;HPM_P2
2021/01/28 00:01:12;;;;;;;2.65;1.40;;;;;;;22.67;34.92;94270.44;4971331;28;20515;-73
2021/01/28 00:03:38;;;;;;;2.22;1.50;;;;;;;22.74;34.89;94275.28;4971491;28;20058;-72
2021/01/28 00:06:03;;;;;;;2.17;1.33;;;;;;;22.70;34.71;94263.94;4971676;28;20026;-71
2021/01/28 00:08:29;;;;;;;2.08;1.67;;;;;;;22.78;34.72;94287.31;4971966;28;20507;-72
2021/01/28 00:10:55;;;;;;;2.25;1.35;;;;;;;22.78;34.97;94281.13;4971919;28;20019;-72
2021/01/28 00:13:20;;;;;;;2.10;1.40;;;;;;;22.79;34.96;94277.88;4971348;28;20026;-72
2021/01/28 00:15:46;;;;;;;1.98;1.30;;;;;;;22.79;34.93;94277.88;4971428;28;20042;-73
2021/01/28 00:18:12;;;;;;;1.98;1.30;;;;;;;22.78;34.75;94281.13;4971418;28;20030;-72
2021/01/28 00:20:40;;;;;;;1.92;1.30;;;;;;;22.77;34.59;94274.94;4971243;28;20058;-73
2021/01/28 00:23:06;;;;;;;1.77;1.33;;;;;;;22.76;34.85;94283.63;4969594;28;20019;-72
2021/01/28 00:25:31;;;;;;;1.73;1.33;;;;;;;22.77;34.55;94290.56;4971175;28;20074;-72
2021/01/28 00:27:57;;;;;;;1.58;1.25;;;;;;;22.76;34.61;94278.19;4971339;28;20069;-72
2021/01/28 00:30:38;;;;;;;1.90;1.30;;;;;;;22.63;34.76;94259.88;4970118;28;20019;-72
2021/01/28 00:33:04;;;;;;;1.92;1.30;;;;;;;22.79;34.63;94286.03;4970015;28;20520;-73
2021/01/28 00:35:30;;;;;;;1.70;1.30;;;;;;;22.77;34.61;94285.84;4970733;28;20062;-72
2021/01/28 00:37:56;;;;;;;1.90;1.40;;;;;;;22.68;34.70;94278.09;4971154;28;20070;-73
2021/01/28 00:40:22;;;;;;;1.77;1.30;;;;;;;22.71;34.64;94277.03;4969977;28;20551;-72
2021/01/28 00:42:49;;;;;;;1.50;1.33;;;;;;;22.72;34.71;94283.19;4969786;28;20023;-72
2021/01/28 00:45:16;;;;;;;1.77;1.30;;;;;;;22.68;34.74;94282.81;4971034;28;20162;-72
2021/01/28 00:47:42;;;;;;;1.85;1.38;;;;;;;22.68;34.97;94288.25;4971138;28;20027;-72
2021/01/28 00:50:08;;;;;;;1.90;1.48;;;;;;;22.69;34.70;94284.25;4970837;28;20018;-73
2021/01/28 00:52:34;;;;;;;2.92;1.80;;;;;;;22.60;34.67;94269.09;4970395;28;20026;-73
2021/01/28 00:54:59;;;;;;;1.77;1.30;;;;;;;22.64;35.02;94283.09;4969623;28;20896;-72
2021/01/28 00:57:24;;;;;;;1.92;1.40;;;;;;;22.60;34.95;94282.69;4970864;28;20038;-72
2021/01/28 00:59:50;;;;;;;1.88;1.30;;;;;;;22.59;34.86;94281.22;4970565;28;20030;-72
2021/01/28 01:02:15;;;;;;;1.90;1.20;;;;;;;22.57;34.91;94278.28;4970708;28;20034;-73
2021/01/28 01:04:41;;;;;;;1.98;1.30;;;;;;;22.60;34.90;94287.38;4970415;28;20046;-72
2021/01/28 01:07:06;;;;;;;1.80;1.35;;;;;;;22.59;34.75;94283.94;4970335;28;20027;-72
2021/01/28 01:09:32;;;;;;;1.77;1.33;;;;;;;22.61;34.88;94286.84;4970561;28;20042;-72
2021/01/28 01:11:57;;;;;;;2.03;1.40;;;;;;;22.62;34.87;94284.88;4970455;28;20034;-72
2021/01/28 01:14:23;;;;;;;1.77;1.30;;;;;;;22.61;34.91;94280.69;4970388;28;20034;-73
2021/01/28 01:16:48;;;;;;;2.30;1.50;;;;;;;22.60;34.70;94274.53;4970215;28;20023;-72
2021/01/28 01:19:14;;;;;;;1.85;1.20;;;;;;;22.57;35.03;94272.09;4970303;28;20031;-72
2021/01/28 01:21:39;;;;;;;3.17;1.63;;;;;;;22.58;34.96;94276.28;4969324;28;20430;-72
2021/01/28 01:24:05;;;;;;;1.60;1.30;;;;;;;22.55;34.75;94269.16;4970392;28;20031;-72
2021/01/28 01:26:31;;;;;;;1.63;1.17;;;;;;;22.49;34.89;94266.53;4970280;28;20022;-72
2021/01/28 01:28:56;;;;;;;1.90;1.30;;;;;;;22.39;35.03;94264.75;4970333;28;20023;-72
2021/01/28 01:31:22;;;;;;;2.03;1.27;;;;;;;22.32;35.13;94273.53;4970051;28;20559;-72
2021/01/28 01:33:47;;;;;;;1.80;1.20;;;;;;;22.24;35.04;94272.69;4969922;28;20554;-72
2021/01/28 01:36:13;;;;;;;2.35;1.38;;;;;;;22.22;35.29;94269.72;4969863;28;20015;-72
2021/01/28 01:38:38;;;;;;;2.00;1.50;;;;;;;22.28;35.14;94267.66;4970087;28;20023;-72
2021/01/28 01:41:03;;;;;;;2.08;1.38;;;;;;;22.30;35.06;94265.16;4970226;28;20035;-72
2021/01/28 01:43:29;;;;;;;1.95;1.20;;;;;;;22.33;35.09;94253.25;4970136;28;20085;-72
2021/01/28 01:46:03;;;;;;;1.77;1.23;;;;;;;22.36;34.99;94265.81;4969958;28;20035;-73
2021/01/28 01:48:49;;;;;;;1.88;1.30;;;;;;;22.33;34.95;94247.81;4969898;28;20057;-72
2021/01/28 01:51:34;;;;;;;1.60;1.10;;;;;;;22.40;34.65;94268.22;4968848;28;20045;-72
2021/01/28 01:54:15;;;;;;;1.85;1.40;;;;;;;22.44;34.86;94269.38;4969212;28;20035;-72
2021/01/28 01:56:43;;;;;;;1.67;1.30;;;;;;;22.34;35.00;94249.25;4976084;28;20055;-73
2021/01/28 01:59:26;;;;;;;2.28;1.75;;;;;;;22.44;34.98;94269.38;4975172;28;20081;-72
2021/01/28 02:01:59;;;;;;;1.90;1.40;;;;;;;22.43;34.96;94270.63;4974748;28;20038;-72
2021/01/28 02:04:25;;;;;;;1.70;1.10;;;;;;;22.42;34.64;94285.50;4975965;28;20066;-73
2021/01/28 02:06:54;;;;;;;1.65;1.27;;;;;;;22.42;34.94;94282.75;4969590;28;20038;-72
2021/01/28 02:09:20;;;;;;;1.63;1.40;;;;;;;22.43;35.02;94284.22;4968959;28;20026;-72
2021/01/28 02:11:46;;;;;;;1.40;1.10;;;;;;;22.44;35.00;94285.69;4968775;28;20041;-72
2021/01/28 02:14:13;;;;;;;1.77;1.23;;;;;;;22.34;34.87;94264.84;4970011;28;20030;-72
2021/01/28 02:16:41;;;;;;;1.98;1.20;;;;;;;22.38;34.78;94270.72;4968510;28;20041;-73
2021/01/28 02:19:31;;;;;;;2.22;1.30;;;;;;;22.49;34.88;94287.56;4968733;28;20117;-72
2021/01/28 02:21:59;;;;;;;1.67;1.38;;;;;;;22.45;34.86;94276.25;4948737;28;20173;-73
2021/01/28 02:25:03;;;;;;;1.63;1.10;;;;;;;22.44;34.90;94280.25;4968912;28;20037;-72
2021/01/28 02:27:29;;;;;;;2.10;1.27;;;;;;;22.41;34.87;94280.56;4965063;28;20047;-72
2021/01/28 02:29:54;;;;;;;1.40;1.17;;;;;;;22.41;34.88;94281.28;4968651;28;20125;-73
2021/01/28 02:32:20;;;;;;;1.80;1.48;;;;;;;22.39;34.93;94283.81;4969486;28;20035;-72
2021/01/28 02:34:45;;;;;;;2.88;1.48;;;;;;;22.36;35.15;94295.72;4969548;28;20027;-72
2021/01/28 02:37:17;;;;;;;2.30;1.60;;;;;;;22.37;34.93;94291.00;4969550;28;20026;-72
2021/01/28 02:39:42;;;;;;;1.70;1.00;;;;;;;22.33;34.92;94291.31;4969714;28;20401;-72
2021/01/28 02:42:08;;;;;;;1.48;1.02;;;;;;;22.37;34.72;94289.00;4969605;28;20035;-72
2021/01/28 02:44:33;;;;;;;1.75;1.20;;;;;;;22.35;34.96;94288.81;4969352;28;20041;-72
2021/01/28 02:46:59;;;;;;;1.85;1.30;;;;;;;22.37;35.01;94297.19;4971040;28;20814;-72
2021/01/28 02:49:24;;;;;;;1.90;1.38;;;;;;;22.38;34.75;94298.66;4973307;28;20034;-72
2021/01/28 02:51:49;;;;;;;1.58;1.23;;;;;;;22.39;34.73;94300.13;4973011;28;20037;-72
2021/01/28 02:54:15;;;;;;;1.83;1.17;;;;;;;22.36;34.86;94295.72;4973054;28;20034;-72
2021/01/28 02:56:40;;;;;;;1.63;1.10;;;;;;;22.39;34.75;94304.81;4973004;28;20034;-72
2021/01/28 02:59:06;;;;;;;1.42;0.98;;;;;;;22.42;34.75;94304.53;4973009;28;20035;-73
2021/01/28 03:01:33;;;;;;;1.48;1.10;;;;;;;22.39;34.93;94305.56;4972708;28;20034;-73
2021/01/28 03:03:58;;;;;;;1.80;1.30;;;;;;;22.40;34.91;94295.41;4971642;28;20055;-72
2021/01/28 03:06:24;;;;;;;1.73;1.15;;;;;;;22.39;34.72;94311.00;4972635;28;20045;-72
2021/01/28 03:08:49;;;;;;;1.60;1.00;;;;;;;22.30;35.01;94303.25;4972656;28;20037;-71
2021/01/28 03:11:14;;;;;;;1.90;1.30;;;;;;;22.20;34.98;94299.41;4971414;28;20416;-73
2021/01/28 03:13:40;;;;;;;1.63;1.17;;;;;;;22.00;34.79;94278.22;4972696;28;20488;-73
2021/01/28 03:16:05;;;;;;;1.60;1.30;;;;;;;22.05;35.08;94304.59;4971422;28;20027;-72
2021/01/28 03:18:31;;;;;;;1.38;1.15;;;;;;;22.05;35.15;94307.28;4972617;28;20038;-72
2021/01/28 03:20:56;;;;;;;1.17;0.90;;;;;;;22.11;35.06;94291.63;4972547;28;20038;-72
2021/01/28 03:23:21;;;;;;;1.48;1.17;;;;;;;22.15;35.02;94289.34;4972524;28;20042;-72
2021/01/28 03:25:47;;;;;;;1.35;1.10;;;;;;;22.19;34.97;94287.06;4954331;28;20035;-72
2021/01/28 03:28:13;;;;;;;2.53;1.33;;;;;;;22.21;34.96;94284.59;4953113;28;20035;-72
2021/01/28 03:30:43;;;;;;;1.83;1.30;;;;;;;22.23;35.04;94282.06;4953202;28;20027;-72
2021/01/28 03:33:11;;;;;;;1.40;1.10;;;;;;;22.24;34.98;94286.28;4953057;28;20504;-72
2021/01/28 03:35:37;;;;;;;2.05;1.30;;;;;;;22.27;34.91;94282.53;4952789;28;20031;-72
2021/01/28 03:38:03;;;;;;;2.08;1.10;;;;;;;22.30;34.97;94286.16;4952936;28;20452;-73
2021/01/28 03:40:29;;;;;;;2.08;1.25;;;;;;;22.30;34.85;94276.03;4952660;28;20035;-72
2021/01/28 03:42:54;;;;;;;1.80;1.20;;;;;;;22.30;34.74;94281.47;4952830;28;20089;-73
2021/01/28 03:45:20;;;;;;;1.77;1.20;;;;;;;22.27;34.91;94271.63;4951664;29;20027;-72
2021/01/28 03:47:45;;;;;;;1.70;1.35;;;;;;;22.25;34.85;94279.56;4952778;28;20547;-72
2021/01/28 03:50:12;;;;;;;1.30;1.00;;;;;;;22.23;34.86;94268.47;4965909;28;20030;-72
2021/01/28 03:52:37;;;;;;;1.85;1.30;;;;;;;22.25;34.83;94279.56;4971921;28;20029;-72
2021/01/28 03:55:04;;;;;;;1.55;0.95;;;;;;;22.19;34.90;94261.84;4972227;28;20031;-72
2021/01/28 03:57:29;;;;;;;1.67;1.20;;;;;;;22.25;34.87;94268.69;4971298;28;20027;-72
2021/01/28 03:59:55;;;;;;;1.50;1.20;;;;;;;22.25;34.81;94263.25;4971699;28;20570;-72
2021/01/28 04:02:20;;;;;;;1.60;0.90;;;;;;;22.24;34.80;94272.69;4971657;28;20031;-72
2021/01/28 04:04:46;;;;;;;1.73;0.93;;;;;;;22.20;34.88;94266.78;4970247;28;20055;-72
2021/01/28 04:07:11;;;;;;;1.85;1.30;;;;;;;22.25;34.78;94279.56;4971676;28;20035;-72
2021/01/28 04:09:37;;;;;;;1.40;1.17;;;;;;;22.17;34.72;94256.94;4971665;28;20424;-72
2021/01/28 04:12:02;;;;;;;1.52;1.00;;;;;;;22.30;34.85;94280.72;4970335;28;20444;-71
2021/01/28 04:14:28;;;;;;;1.80;0.90;;;;;;;22.29;34.72;94273.84;4971342;28;20492;-72
2021/01/28 04:16:53;;;;;;;1.95;1.10;;;;;;;22.29;34.59;94280.00;4971699;28;20405;-73
2021/01/28 04:19:19;;;;;;;1.67;1.20;;;;;;;22.23;34.69;94281.34;4971516;28;20550;-72
2021/01/28 04:21:44;;;;;;;1.75;1.20;;;;;;;22.26;34.90;94281.03;4971548;28;20062;-72
2021/01/28 04:24:10;;;;;;;1.05;0.93;;;;;;;22.24;34.96;94289.00;4971248;28;20037;-72
2021/01/28 04:26:35;;;;;;;1.52;1.10;;;;;;;22.26;34.70;94286.47;4971183;28;20030;-73
2021/01/28 04:29:03;;;;;;;1.33;1.20;;;;;;;22.27;34.90;94293.41;4970966;28;20400;-72
2021/01/28 04:31:28;;;;;;;1.50;1.08;;;;;;;22.26;34.83;94291.91;4971333;28;20488;-73
2021/01/28 04:33:53;;;;;;;1.65;1.10;;;;;;;22.27;34.61;94293.41;4969684;28;20038;-72
2021/01/28 04:36:19;;;;;;;1.45;1.00;;;;;;;22.23;34.75;94294.94;4971075;28;20539;-72
2021/01/28 04:38:44;;;;;;;2.30;1.42;;;;;;;22.23;34.79;94301.13;4969804;28;20054;-73
2021/01/28 04:41:18;;;;;;;1.40;1.15;;;;;;;22.22;34.72;94291.47;4971061;28;20034;-73
2021/01/28 04:43:45;;;;;;;1.42;1.05;;;;;;;22.19;34.76;94297.94;4971111;28;20042;-72
2021/01/28 04:46:21;;;;;;;1.60;1.08;;;;;;;22.05;34.53;94282.81;4969414;28;20475;-72
2021/01/28 04:48:47;;;;;;;1.73;1.15;;;;;;;22.07;34.80;94302.06;4969945;28;20046;-72
2021/01/28 04:51:12;;;;;;;1.52;1.15;;;;;;;22.00;35.00;94302.69;4969695;28;20463;-72
2021/01/28 04:53:41;;;;;;;1.60;1.27;;;;;;;21.94;35.19;94299.31;4970777;28;20039;-72
2021/01/28 04:56:10;;;;;;;1.80;1.10;;;;;;;21.95;34.91;94306.19;4969586;28;20507;-73
2021/01/28 04:58:35;;;;;;;1.40;0.90;;;;;;;21.97;35.01;94320.03;4969239;28;20500;-71
2021/01/28 05:01:01;;;;;;;1.30;1.20;;;;;;;22.00;35.11;94310.84;4969592;28;20023;-72
2021/01/28 05:03:37;;;;;;;1.30;1.00;;;;;;;22.02;34.83;94316.50;4970673;28;20050;-72
2021/01/28 05:06:02;;;;;;;1.52;1.10;;;;;;;22.09;34.92;94326.78;4953581;28;20501;-73
2021/01/28 05:08:28;;;;;;;1.23;0.93;;;;;;;22.13;34.84;94326.47;4969531;28;20042;-72
2021/01/28 05:10:55;;;;;;;1.42;0.93;;;;;;;22.14;34.93;94323.22;4969101;28;20081;-72
2021/01/28 05:13:26;;;;;;;1.15;0.90;;;;;;;22.16;34.91;94330.88;4953830;28;20114;-72
2021/01/28 05:15:53;;;;;;;1.60;1.00;;;;;;;22.06;34.92;94311.50;4931730;29;20044;-72
2021/01/28 05:18:33;;;;;;;1.58;1.15;;;;;;;22.20;34.79;94326.59;4946805;29;20041;-72
2021/01/28 05:21:12;;;;;;;1.48;1.00;;;;;;;22.08;34.77;94319.13;4951368;28;20035;-72
2021/01/28 05:23:39;;;;;;;1.70;1.00;;;;;;;22.13;35.08;94332.63;4949273;29;20473;-77
2021/01/28 05:26:27;;;;;;;1.92;1.00;;;;;;;22.11;35.01;94334.41;4933473;29;20047;-78
2021/01/28 05:28:53;;;;;;;2.03;1.20;;;;;;;22.15;35.12;94346.47;4952279;28;20486;-77
2021/01/28 05:31:26;;;;;;;1.58;1.10;;;;;;;22.22;35.02;94340.44;4952135;29;20023;-75
2021/01/28 05:33:52;;;;;;;1.30;0.80;;;;;;;22.28;35.18;94354.69;4950753;28;20031;-73
2021/01/28 05:36:22;;;;;;;1.70;1.10;;;;;;;22.36;34.97;94355.56;4951218;29;20047;-77
2021/01/28 05:38:52;;;;;;;1.90;1.10;;;;;;;22.41;34.94;94357.47;4951112;28;20032;-77
2021/01/28 05:41:45;;;;;;;1.42;0.90;;;;;;;22.47;35.11;94366.28;4950676;29;20383;-73
2021/01/28 05:44:16;;;;;;;2.30;0.90;;;;;;;22.54;34.66;94360.19;4950882;28;20031;-72
2021/01/28 05:46:41;;;;;;;1.70;1.02;;;;;;;22.51;34.79;94351.09;4949940;28;20035;-74
2021/01/28 05:49:12;;;;;;;1.52;0.90;;;;;;;22.64;34.79;94358.56;4962591;28;20034;-72
2021/01/28 05:51:42;;;;;;;2.55;0.70;;;;;;;22.78;34.42;94362.78;4956764;28;20143;-76
2021/01/28 05:54:07;;;;;;;;;;;;;;;22.88;34.42;94373.50;4950980;29;20035;-76
2021/01/28 05:56:35;;;;;;;1.45;0.80;;;;;;;22.94;33.98;94371.44;4949959;28;20021;-74
2021/01/28 05:59:14;;;;;;;1.48;0.80;;;;;;;23.06;34.17;94378.16;4934110;29;20094;-76
2021/01/28 06:01:59;;;;;;;1.40;1.00;;;;;;;23.15;34.05;94375.03;4946814;28;20098;-75
2021/01/28 06:04:49;;;;;;;1.30;0.90;;;;;;;23.17;33.74;94358.13;4947598;28;20158;-79
2021/01/28 06:07:30;;;;;;;1.00;0.70;;;;;;;23.30;33.67;94375.22;4943403;28;20098;-72
2021/01/28 06:10:12;;;;;;;1.60;1.20;;;;;;;23.37;33.80;94373.88;4950759;28;20190;-76
2021/01/28 06:13:04;;;;;;;2.03;1.10;;;;;;;23.44;33.94;94382.16;4948759;29;20027;-77
2021/01/28 06:15:50;;;;;;;1.30;1.00;;;;;;;23.48;33.60;94371.66;4950584;28;20121;-77
2021/01/28 06:18:16;;;;;;;1.50;1.00;;;;;;;23.59;33.08;94376.91;4949984;29;20031;-75
2021/01/28 06:21:02;;;;;;;1.30;0.95;;;;;;;23.69;33.14;94377.97;4950231;28;20030;-73
2021/01/28 06:24:02;;;;;;;1.42;0.90;;;;;;;23.79;32.60;94381.72;4953375;28;20047;-75
2021/01/28 06:26:27;;;;;;;;;;;;;;;23.86;33.09;94374.38;4952632;29;20113;-74
2021/01/28 06:29:34;;;;;;;1.60;1.00;;;;;;;23.93;32.70;94376.47;4953445;28;20065;-74
2021/01/28 06:32:46;;;;;;;1.10;1.00;;;;;;;24.00;32.52;94378.53;4959233;28;20039;-80
2021/01/28 06:35:30;;;;;;;1.35;0.90;;;;;;;24.07;32.58;94377.16;4954267;28;20555;-76
2021/01/28 06:38:11;;;;;;;1.30;0.93;;;;;;;24.07;32.63;94377.88;4954667;29;20050;-75
2021/01/28 06:40:36;;;;;;;1.80;1.00;;;;;;;24.12;32.98;94377.03;4952080;29;20583;-76
2021/01/28 06:43:07;;;;;;;1.48;0.90;;;;;;;24.07;32.60;94374.44;4937072;29;20030;-77
2021/01/28 06:45:35;;;;;;;1.45;1.13;;;;;;;24.15;32.87;94381.41;4937294;29;20050;-77
2021/01/28 06:48:38;;;;;;;1.30;1.10;;;;;;;24.25;32.60;94385.19;4953437;29;20098;-75
2021/01/28 06:51:12;;;;;;;1.27;0.80;;;;;;;24.38;32.60;94377.00;4931885;29;20035;-73
2021/01/28 06:53:45;;;;;;;1.55;1.15;;;;;;;24.45;32.41;94381.78;4933126;29;20062;-71
2021/01/28 06:56:14;;;;;;;1.60;1.10;;;;;;;24.50;32.00;94378.19;4951935;28;20063;-71
2021/01/28 06:59:02;;;;;;;1.23;0.88;;;;;;;24.48;32.22;94386.16;4953156;28;20082;-71
2021/01/28 07:01:52;;;;;;;1.40;0.95;;;;;;;24.50;32.25;94378.19;4951395;28;20397;-71
2021/01/28 07:04:20;;;;;;;1.75;1.02;;;;;;;24.48;32.00;94377.97;4954029;28;20059;-77
2021/01/28 07:07:02;;;;;;;1.55;1.08;;;;;;;24.42;32.21;94393.75;4952423;28;20054;-72
2021/01/28 07:09:43;;;;;;;2.25;1.10;;;;;;;24.47;31.74;94395.63;4936771;29;20023;-81
2021/01/28 07:12:10;;;;;;;1.77;1.20;;;;;;;24.46;31.84;94399.63;4954417;28;20500;-79
2021/01/28 07:14:35;;;;;;;1.67;0.90;;;;;;;24.42;31.75;94399.22;4952624;28;20503;-76
2021/01/28 07:17:18;;;;;;;3.60;1.23;;;;;;;24.43;31.78;94395.94;4952889;28;20034;-79
2021/01/28 07:19:51;;;;;;;1.65;1.10;;;;;;;24.52;31.76;94400.22;4955383;28;20039;-75
2021/01/28 07:22:25;;;;;;;1.48;1.00;;;;;;;24.60;31.66;94409.22;4952644;29;20023;-76
2021/01/28 07:24:51;;;;;;;1.63;1.13;;;;;;;24.77;31.76;94395.91;4967881;28;20055;-75
2021/01/28 07:27:16;;;;;;;1.00;0.90;;;;;;;24.82;31.38;94404.69;4952998;28;20022;-81
2021/01/28 07:29:45;;;;;;;1.10;0.90;;;;;;;24.82;31.81;94406.69;4934464;29;20027;-73
2021/01/28 07:32:23;;;;;;;1.70;1.08;;;;;;;24.72;31.80;94394.03;4953979;28;20063;-73
2021/01/28 07:35:25;;;;;;;0.98;0.88;;;;;;;24.78;31.54;94419.22;4953704;29;20207;-73
2021/01/28 07:37:54;;;;;;;1.60;1.20;;;;;;;24.76;31.54;94411.56;4954959;29;20564;-74
2021/01/28 07:40:57;;;;;;;1.40;1.10;;;;;;;24.77;31.37;94417.75;4954457;29;20125;-71
2021/01/28 07:43:27;;;;;;;1.80;1.20;;;;;;;24.82;31.07;94408.69;4952010;29;20126;-71
2021/01/28 07:46:14;;;;;;;1.42;1.00;;;;;;;24.83;31.04;94411.63;4952499;29;20023;-71
2021/01/28 07:48:40;;;;;;;1.77;1.27;;;;;;;24.85;31.15;94392.69;4952172;28;20030;-72
2021/01/28 07:51:31;;;;;;;1.50;1.13;;;;;;;24.76;31.39;94405.38;4952711;28;20023;-71
2021/01/28 07:53:57;;;;;;;1.45;1.10;;;;;;;24.74;31.35;94402.41;4952363;29;20023;-71
2021/01/28 07:56:44;;;;;;;1.73;1.00;;;;;;;24.72;31.26;94404.97;4952140;28;20090;-70
2021/01/28 07:59:20;;;;;;;1.98;1.25;;;;;;;24.73;31.52;94395.50;4951676;29;20086;-71
2021/01/28 08:01:47;;;;;;;2.13;1.30;;;;;;;24.61;31.42;94421.63;4949327;29;20035;-72
2021/01/28 08:04:19;;;;;;;1.42;0.93;;;;;;;24.56;31.08;94414.28;4950332;29;20059;-71
2021/01/28 08:06:47;;;;;;;1.73;1.08;;;;;;;24.52;31.02;94419.34;4951155;28;20038;-71
2021/01/28 08:09:16;;;;;;;2.03;1.10;;;;;;;24.43;31.61;94411.59;4950986;28;20015;-71
2021/01/28 08:11:55;;;;;;;1.60;1.10;;;;;;;24.42;31.13;94415.59;4951191;29;20412;-71
2021/01/28 08:14:25;;;;;;;1.95;1.30;;;;;;;24.34;31.34;94420.22;4951791;28;20031;-71
2021/01/28 08:16:51;;;;;;;1.58;1.10;;;;;;;24.31;31.24;94410.34;4949852;29;20457;-71
2021/01/28 08:19:25;;;;;;;1.40;1.10;;;;;;;24.26;31.56;94419.41;4949120;29;20027;-71
2021/01/28 08:22:12;;;;;;;1.67;1.10;;;;;;;24.24;31.64;94421.91;4951244;28;20034;-71
2021/01/28 08:24:39;;;;;;;1.30;1.10;;;;;;;24.19;31.32;94409.13;4951196;28;20033;-70
2021/01/28 08:27:30;;;;;;;1.85;1.20;;;;;;;24.18;31.30;94423.28;4949008;29;20047;-71
2021/01/28 08:30:13;;;;;;;1.58;1.05;;;;;;;24.10;31.28;94423.22;4947464;29;20039;-71
2021/01/28 08:32:53;;;;;;;1.45;1.10;;;;;;;24.01;31.52;94431.81;4949506;28;20031;-71
2021/01/28 08:35:42;;;;;;;2.25;1.58;;;;;;;23.99;31.77;94418.00;4951370;28;20023;-71
2021/01/28 08:38:20;;;;;;;1.92;1.10;;;;;;;24.00;32.00;94433.06;4947872;29;20054;-71
2021/01/28 08:40:59;;;;;;;2.00;1.30;;;;;;;23.90;31.77;94426.59;4949269;28;20555;-71
2021/01/28 08:43:28;;;;;;;1.52;0.95;;;;;;;23.91;31.99;94438.25;4951255;28;20031;-70
2021/01/28 08:46:18;;;;;;;1.52;1.00;;;;;;;23.87;31.97;94438.56;4951348;28;20019;-70
2021/01/28 08:48:44;;;;;;;1.35;1.20;;;;;;;23.84;31.86;94443.59;4949449;29;20049;-70
2021/01/28 08:51:22;;;;;;;1.75;1.20;;;;;;;23.85;31.95;94439.63;4951012;28;20803;-71
2021/01/28 08:54:02;;;;;;;1.60;1.00;;;;;;;23.65;31.68;94410.28;4953121;29;20078;-70
2021/01/28 08:56:32;;;;;;;1.85;1.23;;;;;;;23.72;31.83;94425.97;4954057;29;20042;-71
2021/01/28 08:59:01;;;;;;;1.45;1.08;;;;;;;23.66;32.00;94428.06;4937143;29;20520;-70
2021/01/28 09:01:26;;;;;;;1.75;1.20;;;;;;;23.66;32.02;94441.72;4940218;29;20038;-71
2021/01/28 09:04:13;;;;;;;2.80;1.17;;;;;;;23.69;32.25;94449.59;4924651;29;762280;-71
2021/01/28 09:06:45;;;;;;;1.65;1.20;;;;;;;23.66;32.37;94438.97;4952335;29;20744;-71
2021/01/28 09:09:34;;;;;;;1.58;1.13;;;;;;;23.64;32.46;94457.88;4953191;28;20035;-71
2021/01/28 09:12:27;;;;;;;1.70;1.17;;;;;;;23.61;32.00;94464.34;4954782;28;20098;-71
2021/01/28 09:15:23;;;;;;;1.85;1.20;;;;;;;23.59;31.98;94461.41;4955591;29;20094;-71
2021/01/28 09:17:49;;;;;;;1.70;0.95;;;;;;;23.58;32.06;94468.09;4947795;28;20035;-71
2021/01/28 09:20:29;;;;;;;1.63;1.02;;;;;;;23.56;32.30;94467.91;4969572;28;20545;-71
2021/01/28 09:23:04;;;;;;;;;;;;;;;23.54;32.44;94470.41;4950040;29;20031;-70
2021/01/28 09:25:30;;;;;;;1.70;1.10;;;;;;;23.49;32.15;94463.06;4953529;28;19973;-71
2021/01/28 09:28:03;;;;;;;1.42;0.98;;;;;;;23.46;32.14;94464.13;4953486;29;20460;-71
2021/01/28 09:30:36;;;;;;;2.05;1.20;;;;;;;23.43;32.20;94465.16;4953740;28;20031;-70
2021/01/28 09:33:25;;;;;;;1.33;1.00;;;;;;;23.40;32.66;94466.19;4952991;29;20046;-70
2021/01/28 09:36:19;;;;;;;1.75;1.20;;;;;;;23.39;32.43;94476.38;4951030;29;20512;-71
2021/01/28 09:39:03;;;;;;;1.23;0.90;;;;;;;23.40;32.74;94458.03;4953313;28;20485;-71
2021/01/28 09:41:39;;;;;;;1.58;1.10;;;;;;;23.31;32.39;94439.34;4936778;29;20031;-71
2021/01/28 09:44:28;;;;;;;1.45;0.85;;;;;;;23.34;32.45;94446.50;4947649;29;20023;-71
2021/01/28 09:47:30;;;;;;;1.60;1.10;;;;;;;23.34;32.29;94457.38;4934488;29;20110;-71
2021/01/28 09:50:00;;;;;;;1.67;1.20;;;;;;;23.32;32.27;94454.47;4948097;29;20493;-71
2021/01/28 09:52:30;;;;;;;1.77;1.20;;;;;;;23.23;32.46;94443.22;4951468;29;20019;-71
2021/01/28 09:54:59;;;;;;;1.20;1.05;;;;;;;23.23;32.68;94448.66;4951031;28;20089;-71
2021/01/28 09:57:25;;;;;;;2.08;1.20;;;;;;;23.24;32.73;94459.03;4957655;28;20099;-71
2021/01/28 09:59:51;;;;;;;1.50;1.10;;;;;;;23.25;32.51;94449.63;4958916;28;20579;-71
2021/01/28 10:02:22;;;;;;;1.67;1.30;;;;;;;23.14;32.89;94430.75;4956782;28;20023;-72
2021/01/28 10:04:47;;;;;;;1.48;1.08;;;;;;;23.21;32.36;94454.63;4954103;28;20456;-71
2021/01/28 10:07:14;;;;;;;1.40;1.00;;;;;;;23.21;32.85;94449.19;4953726;28;20023;-72
2021/01/28 10:09:39;;;;;;;1.20;1.00;;;;;;;23.20;32.93;94436.84;4953765;28;20042;-71
2021/01/28 10:12:05;;;;;;;1.42;0.93;;;;;;;23.22;32.87;94442.50;4953725;28;20035;-73
2021/01/28 10:14:31;;;;;;;1.70;1.00;;;;;;;23.19;32.93;94438.09;4954208;28;20024;-74
2021/01/28 10:16:56;;;;;;;1.23;0.90;;;;;;;23.13;33.21;94432.00;4953963;28;20019;-73
2021/01/28 10:19:21;;;;;;;1.38;0.90;;;;;;;23.18;33.53;94428.44;4954073;28;20027;-74
2021/01/28 10:21:47;;;;;;;1.55;1.00;;;;;;;23.33;33.90;94434.13;4954177;28;20074;-72
2021/01/28 10:24:13;;;;;;;1.52;1.05;;;;;;;23.36;34.21;94449.41;4953539;28;20031;-72
2021/01/28 10:26:39;;;;;;;1.65;1.00;;;;;;;23.37;34.53;94440.00;4953767;29;20027;-74
2021/01/28 10:29:04;;;;;;;2.33;0.95;;;;;;;23.40;34.78;94438.94;4954734;28;20034;-74
2021/01/28 10:31:30;;;;;;;1.73;0.90;;;;;;;23.44;35.29;94433.94;4958145;28;20023;-75
2021/01/28 10:33:55;;;;;;;1.63;0.90;;;;;;;23.42;35.08;94417.34;4957060;28;20027;-73
2021/01/28 10:36:21;;;;;;;1.85;0.93;;;;;;;23.62;35.87;94427.66;4953296;28;20019;-73
2021/01/28 10:38:46;;;;;;;1.23;0.95;;;;;;;23.61;35.67;94435.06;4960489;28;20027;-77
2021/01/28 10:41:12;;;;;;;1.35;0.90;;;;;;;23.75;35.48;94441.28;4954845;28;20031;-73
2021/01/28 10:43:37;;;;;;;2.05;1.15;;;;;;;23.83;36.05;94447.59;4955407;28;20032;-76
2021/01/28 10:46:03;;;;;;;1.95;1.02;;;;;;;23.82;36.56;94446.13;4953621;29;20027;-78
2021/01/28 10:48:28;;;;;;;1.85;1.00;;;;;;;23.87;37.06;94454.94;4952455;29;20023;-74
2021/01/28 10:50:54;;;;;;;1.77;1.00;;;;;;;23.91;36.31;94458.03;4945586;28;20031;-73
2021/01/28 10:53:19;;;;;;;1.88;1.10;;;;;;;23.90;36.38;94451.16;4971276;28;20030;-75
2021/01/28 10:55:45;;;;;;;1.33;1.00;;;;;;;23.97;36.55;94452.50;4952430;29;20030;-75
2021/01/28 10:58:11;;;;;;;2.28;1.00;;;;;;;23.95;36.06;94433.94;4953557;28;20432;-75
2021/01/28 11:00:36;;;;;;;1.33;0.90;;;;;;;24.02;35.13;94427.09;4951716;28;20425;-73
2021/01/28 11:03:01;;;;;;;2.00;1.08;;;;;;;24.28;35.18;94438.69;4951900;28;20036;-74
2021/01/28 11:05:32;;;;;;;1.33;0.90;;;;;;;24.38;34.69;94442.47;4949509;28;20047;-73
2021/01/28 11:07:57;;;;;;;;;;;;;;;24.45;34.67;94442.56;4952513;28;20059;-75
2021/01/28 11:10:23;;;;;;;1.38;1.02;;;;;;;24.55;35.53;94440.13;4953294;28;19914;-74
2021/01/28 11:12:50;;;;;;;1.52;1.00;;;;;;;24.57;35.23;94443.78;4953001;28;20023;-75
2021/01/28 11:15:15;;;;;;;1.98;1.20;;;;;;;24.54;35.41;94427.72;4954066;28;20476;-77
2021/01/28 11:17:41;;;;;;;1.80;1.00;;;;;;;24.63;35.02;94435.47;4943500;28;20022;-80
2021/01/28 11:20:10;;;;;;;1.85;1.00;;;;;;;24.71;35.30;94441.72;4958630;28;20031;-82
2021/01/28 11:22:35;;;;;;;1.15;0.80;;;;;;;24.77;34.98;94437.63;4962701;28;20065;-74
2021/01/28 11:25:01;;;;;;;1.48;1.00;;;;;;;24.78;35.25;94430.16;4964181;28;20428;-76
2021/01/28 11:27:27;;;;;;;1.35;0.90;;;;;;;24.71;34.70;94414.41;4965404;28;20015;-77
2021/01/28 11:29:53;;;;;;;1.75;0.98;;;;;;;24.88;34.65;94435.34;4953241;28;20031;-73
2021/01/28 11:32:18;;;;;;;1.30;1.00;;;;;;;24.91;34.90;94426.06;4964298;28;20023;-71
2021/01/28 11:34:44;;;;;;;1.48;0.93;;;;;;;24.97;34.28;94434.88;4951778;28;20023;-71
2021/01/28 11:37:09;;;;;;;1.52;1.02;;;;;;;25.00;34.08;94431.09;4952563;29;20031;-71
2021/01/28 11:39:35;;;;;;;1.45;1.00;;;;;;;25.03;33.87;94427.31;4952442;28;20019;-71
2021/01/28 11:42:00;;;;;;;1.30;1.00;;;;;;;25.09;33.81;94432.63;4952574;28;20054;-71
2021/01/28 11:44:26;;;;;;;1.73;1.10;;;;;;;25.07;33.26;94430.44;4952954;28;20031;-70
2021/01/28 11:46:53;;;;;;;1.73;1.05;;;;;;;24.97;33.08;94426.66;4952453;28;20031;-71
2021/01/28 11:49:19;;;;;;;1.70;1.20;;;;;;;24.97;33.07;94426.66;4951828;28;20341;-70
2021/01/28 11:51:44;;;;;;;1.60;0.90;;;;;;;24.96;33.11;94430.69;4967674;28;20508;-71